Time;durP1;ratioP1;P1;durP2;ratioP2;P2;SDS_P1;SDS_P2;PMS_P1;PMS_P2;Temp;Humidity;BMP_temperature;BMP_pressure;BME280_temperature;BME280_humidity;BME280_pressure;Samples;Min_cycle;Max_cycle;Signal;HPM_P1;HPM_P2
2021/12/03 00:00:09;;;;;;;9.20;5.20;;;;;;;;;;4934982;29;20063;-75
2021/12/03 00:02:34;;;;;;;8.40;5.85;;;;;;;;;;4934871;29;20123;-77
2021/12/03 00:05:04;;;;;;;9.13;5.95;;;;;;;;;;4936052;29;20550;-76
2021/12/03 00:07:29;;;;;;;6.97;5.68;;;;;;;;;;4933929;29;20051;-75
2021/12/03 00:09:56;;;;;;;9.75;7.65;;;;;;;;;;4935145;29;20423;-77
2021/12/03 00:12:22;;;;;;;6.95;5.90;;;;;;;;;;4935430;29;20032;-76
2021/12/03 00:14:48;;;;;;;6.82;5.80;;;;;;;;;;4935088;29;20087;-76
2021/12/03 00:17:13;;;;;;;8.65;6.10;;;;;;;;;;4935357;29;20042;-77
2021/12/03 00:19:39;;;;;;;10.25;5.97;;;;;;;;;;4935272;29;20063;-74
2021/12/03 00:22:04;;;;;;;9.18;7.28;;;;;;;;;;4935383;29;20502;-79
2021/12/03 00:24:30;;;;;;;6.25;5.65;;;;;;;;;;4934939;29;20036;-76
2021/12/03 00:26:55;;;;;;;7.40;5.70;;;;;;;;;;4935159;29;20454;-77
2021/12/03 00:29:20;;;;;;;6.82;5.93;;;;;;;;;;4934466;29;20055;-76
2021/12/03 00:31:46;;;;;;;8.10;6.32;;;;;;;;;;4934303;29;20040;-78
2021/12/03 00:34:11;;;;;;;8.63;6.50;;;;;;;;;;4916367;29;20213;-77
2021/12/03 00:36:37;;;;;;;7.80;5.47;;;;;;;;;;4934967;29;20558;-76
2021/12/03 00:39:04;;;;;;;9.82;6.07;;;;;;;;;;4935007;29;20035;-77
2021/12/03 00:41:34;;;;;;;8.18;6.03;;;;;;;;;;4934810;29;20059;-77
2021/12/03 00:43:59;;;;;;;10.73;6.53;;;;;;;;;;4934538;29;20380;-76
2021/12/03 00:46:25;;;;;;;11.32;6.72;;;;;;;;;;4934680;29;20043;-77
2021/12/03 00:48:53;;;;;;;9.13;5.43;;;;;;;;;;4934522;29;20102;-77
2021/12/03 00:51:21;;;;;;;8.75;5.82;;;;;;;;;;4934742;29;20090;-75
2021/12/03 00:53:47;;;;;;;11.75;10.65;;;;;;;;;;4934961;29;20492;-79
2021/12/03 00:56:13;;;;;;;9.80;6.88;;;;;;;;;;4934023;29;20118;-78
2021/12/03 00:58:39;;;;;;;8.55;5.63;;;;;;;;;;4934034;29;20519;-76
2021/12/03 01:01:05;;;;;;;9.38;6.28;;;;;;;;;;4934716;29;20502;-77
2021/12/03 01:03:32;;;;;;;7.57;5.80;;;;;;;;;;4934382;29;20046;-76
2021/12/03 01:05:58;;;;;;;9.95;6.28;;;;;;;;;;4934672;29;20534;-75
2021/12/03 01:08:24;;;;;;;9.50;6.03;;;;;;;;;;4934027;29;20040;-76
2021/12/03 01:10:49;;;;;;;8.32;6.43;;;;;;;;;;4934414;29;20035;-76
2021/12/03 01:13:15;;;;;;;8.30;5.53;;;;;;;;;;4934587;29;20577;-77
2021/12/03 01:15:42;;;;;;;8.32;6.47;;;;;;;;;;4934575;29;20043;-77
2021/12/03 01:18:09;;;;;;;7.70;5.82;;;;;;;;;;4933862;29;20106;-75
2021/12/03 01:20:37;;;;;;;7.45;5.97;;;;;;;;;;4934540;29;20082;-75
2021/12/03 01:23:03;;;;;;;11.27;7.32;;;;;;;;;;4932927;29;20059;-75
2021/12/03 01:25:31;;;;;;;8.20;6.00;;;;;;;;;;4933988;29;20067;-77
2021/12/03 01:27:59;;;;;;;8.07;5.70;;;;;;;;;;4933333;29;20031;-76
2021/12/03 01:30:26;;;;;;;6.95;5.47;;;;;;;;;;4934064;29;20059;-78
2021/12/03 01:32:51;;;;;;;6.25;5.45;;;;;;;;;;4934018;29;20091;-77
2021/12/03 01:35:18;;;;;;;9.18;5.90;;;;;;;;;;4934354;29;20039;-76
2021/12/03 01:37:45;;;;;;;7.97;6.05;;;;;;;;;;4934119;29;20565;-76
2021/12/03 01:40:15;;;;;;;6.78;5.85;;;;;;;;;;4932354;29;20039;-76
2021/12/03 01:42:44;;;;;;;6.10;5.45;;;;;;;;;;4934039;29;20069;-76
2021/12/03 01:45:12;;;;;;;6.75;6.03;;;;;;;;;;4934259;29;20486;-78
2021/12/03 01:47:40;;;;;;;7.57;5.72;;;;;;;;;;4933224;29;20063;-77
2021/12/03 01:50:06;;;;;;;8.30;6.13;;;;;;;;;;4933992;29;20036;-77
2021/12/03 01:52:32;;;;;;;11.15;6.57;;;;;;;;;;4933949;29;20098;-78
2021/12/03 01:54:59;;;;;;;7.40;6.07;;;;;;;;;;4933876;29;20569;-77
2021/12/03 01:57:25;;;;;;;10.30;8.75;;;;;;;;;;4933819;29;20411;-77
2021/12/03 01:59:51;;;;;;;10.90;7.32;;;;;;;;;;4933995;29;20035;-76
2021/12/03 02:02:16;;;;;;;12.13;10.77;;;;;;;;;;4933022;29;20486;-76
2021/12/03 02:04:42;;;;;;;8.98;6.90;;;;;;;;;;4933697;29;20035;-77
2021/12/03 02:07:07;;;;;;;12.85;8.70;;;;;;;;;;4933771;29;20028;-77
2021/12/03 02:09:33;;;;;;;10.55;7.65;;;;;;;;;;4932731;29;20074;-76
2021/12/03 02:11:59;;;;;;;10.15;6.97;;;;;;;;;;4932937;29;20455;-77
2021/12/03 02:14:24;;;;;;;14.45;8.50;;;;;;;;;;4933131;29;20514;-76
2021/12/03 02:16:50;;;;;;;11.55;8.18;;;;;;;;;;4933234;29;20059;-77
2021/12/03 02:19:17;;;;;;;13.93;8.35;;;;;;;;;;4933408;29;20047;-77
2021/12/03 02:21:43;;;;;;;15.82;9.60;;;;;;;;;;4933046;29;20038;-75
2021/12/03 02:24:09;;;;;;;14.20;9.85;;;;;;;;;;4932685;29;20051;-75
2021/12/03 02:26:39;;;;;;;11.05;8.93;;;;;;;;;;4933259;29;20133;-77
2021/12/03 02:29:05;;;;;;;15.32;10.07;;;;;;;;;;4933324;29;20050;-77
2021/12/03 02:31:30;;;;;;;14.43;9.18;;;;;;;;;;4933280;29;20044;-76
2021/12/03 02:33:56;;;;;;;15.27;9.07;;;;;;;;;;4933272;29;20098;-77
2021/12/03 02:36:22;;;;;;;17.25;10.23;;;;;;;;;;4932556;29;20066;-77
2021/12/03 02:38:48;;;;;;;20.58;14.35;;;;;;;;;;4931771;29;20588;-76
2021/12/03 02:41:14;;;;;;;15.43;9.77;;;;;;;;;;4933358;29;20127;-78
2021/12/03 02:43:40;;;;;;;13.90;9.88;;;;;;;;;;4933100;29;20036;-77
2021/12/03 02:46:05;;;;;;;13.57;8.95;;;;;;;;;;4932772;29;20035;-76
2021/12/03 02:48:32;;;;;;;14.77;9.18;;;;;;;;;;4933367;29;20031;-75
2021/12/03 02:50:58;;;;;;;17.17;9.95;;;;;;;;;;4933169;29;20036;-76
2021/12/03 02:53:24;;;;;;;12.82;9.00;;;;;;;;;;4915999;29;20031;-77
2021/12/03 02:55:51;;;;;;;13.38;9.27;;;;;;;;;;4933042;29;20042;-77
2021/12/03 02:58:17;;;;;;;13.30;8.10;;;;;;;;;;4932978;29;20035;-78
2021/12/03 03:00:46;;;;;;;9.82;7.57;;;;;;;;;;4932892;29;20510;-76
2021/12/03 03:03:12;;;;;;;9.95;7.38;;;;;;;;;;4930778;29;20062;-76
2021/12/03 03:05:38;;;;;;;9.45;7.90;;;;;;;;;;4933336;29;20522;-77
2021/12/03 03:08:04;;;;;;;7.45;6.68;;;;;;;;;;4932482;29;20094;-76
2021/12/03 03:10:33;;;;;;;7.60;6.45;;;;;;;;;;4932750;29;20396;-76
2021/12/03 03:13:00;;;;;;;10.02;7.25;;;;;;;;;;4933045;29;20525;-76
2021/12/03 03:15:26;;;;;;;11.15;7.22;;;;;;;;;;4932258;29;20442;-76
2021/12/03 03:17:52;;;;;;;8.50;6.13;;;;;;;;;;4932429;29;20047;-75
2021/12/03 03:20:18;;;;;;;9.55;6.40;;;;;;;;;;4932422;29;20126;-75
2021/12/03 03:22:45;;;;;;;6.30;5.32;;;;;;;;;;4931377;29;20043;-77
2021/12/03 03:25:15;;;;;;;7.88;5.88;;;;;;;;;;4932155;29;20043;-76
2021/12/03 03:27:41;;;;;;;7.30;5.32;;;;;;;;;;4931542;29;20035;-77
2021/12/03 03:30:11;;;;;;;6.03;5.43;;;;;;;;;;4931989;29;20060;-77
2021/12/03 03:32:37;;;;;;;7.43;4.88;;;;;;;;;;4915253;29;20039;-76
2021/12/03 03:35:04;;;;;;;5.85;4.80;;;;;;;;;;4932727;29;20111;-78
2021/12/03 03:37:29;;;;;;;7.05;5.53;;;;;;;;;;4932141;29;20042;-77
2021/12/03 03:39:55;;;;;;;7.15;5.40;;;;;;;;;;4932751;29;20036;-75
2021/12/03 03:42:20;;;;;;;5.25;4.75;;;;;;;;;;4932053;29;20036;-76
2021/12/03 03:44:46;;;;;;;6.95;5.00;;;;;;;;;;4932388;29;20384;-77
2021/12/03 03:47:12;;;;;;;5.78;4.80;;;;;;;;;;4932486;29;20138;-77
2021/12/03 03:49:38;;;;;;;6.97;5.13;;;;;;;;;;4932277;29;20040;-77
2021/12/03 03:52:05;;;;;;;7.05;5.47;;;;;;;;;;4931373;29;20502;-76
2021/12/03 03:54:30;;;;;;;6.10;4.85;;;;;;;;;;4932084;29;20050;-76
2021/12/03 03:56:56;;;;;;;6.90;6.25;;;;;;;;;;4932495;29;20780;-78
2021/12/03 03:59:22;;;;;;;6.68;4.95;;;;;;;;;;4932231;29;20035;-79
2021/12/03 04:01:49;;;;;;;6.45;5.07;;;;;;;;;;4931690;29;20035;-77
2021/12/03 04:04:15;;;;;;;5.28;4.72;;;;;;;;;;4935527;29;20046;-79
2021/12/03 04:06:41;;;;;;;4.72;4.15;;;;;;;;;;4935702;29;20518;-77
2021/12/03 04:09:08;;;;;;;4.90;4.22;;;;;;;;;;4935010;29;20491;-78
2021/12/03 04:11:34;;;;;;;4.53;3.83;;;;;;;;;;4936359;29;20058;-76
2021/12/03 04:13:59;;;;;;;5.13;4.72;;;;;;;;;;4935600;29;20035;-77
2021/12/03 04:16:25;;;;;;;4.78;4.38;;;;;;;;;;4935253;29;20056;-77
2021/12/03 04:18:51;;;;;;;4.10;3.80;;;;;;;;;;4935145;29;20074;-76
2021/12/03 04:21:16;;;;;;;4.88;4.45;;;;;;;;;;4936395;29;20035;-75
2021/12/03 04:23:42;;;;;;;4.13;3.80;;;;;;;;;;4935375;29;20054;-78
2021/12/03 04:26:08;;;;;;;5.28;4.78;;;;;;;;;;4935910;29;20074;-77
2021/12/03 04:28:34;;;;;;;4.13;3.72;;;;;;;;;;4936078;29;20048;-78
2021/12/03 04:31:00;;;;;;;6.55;6.05;;;;;;;;;;4934897;29;20423;-75
2021/12/03 04:33:26;;;;;;;3.75;3.45;;;;;;;;;;4935206;29;20063;-76
2021/12/03 04:35:51;;;;;;;4.03;3.70;;;;;;;;;;4935356;29;20040;-75
2021/12/03 04:38:17;;;;;;;4.45;4.15;;;;;;;;;;4935132;29;20078;-76
2021/12/03 04:40:43;;;;;;;4.60;4.22;;;;;;;;;;4935635;29;20550;-77
2021/12/03 04:43:09;;;;;;;5.20;4.70;;;;;;;;;;4934260;29;20102;-77
2021/12/03 04:45:35;;;;;;;5.15;4.28;;;;;;;;;;4934733;29;20043;-77
2021/12/03 04:48:02;;;;;;;6.45;4.85;;;;;;;;;;4935181;29;20035;-76
2021/12/03 04:50:32;;;;;;;5.28;4.78;;;;;;;;;;4918136;29;20095;-77
2021/12/03 04:52:57;;;;;;;8.00;6.55;;;;;;;;;;4934757;29;20047;-77
2021/12/03 04:55:24;;;;;;;8.25;6.85;;;;;;;;;;4934947;29;20047;-76
2021/12/03 04:57:50;;;;;;;10.10;7.13;;;;;;;;;;4935023;29;20086;-78
2021/12/03 05:00:38;;;;;;;8.98;6.15;;;;;;;;;;4934620;29;20035;-79
2021/12/03 05:03:03;;;;;;;10.52;7.28;;;;;;;;;;4934278;29;20040;-77
2021/12/03 05:05:33;;;;;;;11.57;7.55;;;;;;;;;;4917429;29;20094;-76
2021/12/03 05:08:18;;;;;;;11.18;8.23;;;;;;;;;;4933611;29;20046;-76
2021/12/03 05:10:44;;;;;;;14.32;6.80;;;;;;;;;;4933839;29;20040;-77
2021/12/03 05:13:13;;;;;;;10.30;6.97;;;;;;;;;;4933784;29;20561;-76
2021/12/03 05:15:40;;;;;;;8.52;6.25;;;;;;;;;;4934215;29;20453;-77
2021/12/03 05:18:07;;;;;;;10.18;6.82;;;;;;;;;;4934292;29;20042;-77
2021/12/03 05:20:33;;;;;;;6.57;5.82;;;;;;;;;;4916492;29;20035;-77
2021/12/03 05:23:00;;;;;;;10.30;5.50;;;;;;;;;;4917125;29;20043;-76
2021/12/03 05:25:26;;;;;;;7.53;4.50;;;;;;;;;;4934276;29;20071;-78
2021/12/03 05:27:53;;;;;;;6.20;4.85;;;;;;;;;;4934310;29;20502;-76
2021/12/03 05:30:19;;;;;;;5.63;4.32;;;;;;;;;;4933851;29;20106;-77
2021/12/03 05:32:45;;;;;;;5.05;4.65;;;;;;;;;;4932866;29;20035;-76
2021/12/03 05:35:11;;;;;;;5.03;4.43;;;;;;;;;;4933546;29;20040;-77
2021/12/03 05:37:37;;;;;;;5.75;5.07;;;;;;;;;;4934016;29;20040;-76
2021/12/03 05:40:05;;;;;;;4.13;3.72;;;;;;;;;;4933979;29;20171;-76
2021/12/03 05:42:31;;;;;;;7.38;4.32;;;;;;;;;;4933749;29;20118;-76
2021/12/03 05:44:58;;;;;;;4.22;3.78;;;;;;;;;;4933476;29;20483;-76
2021/12/03 05:47:24;;;;;;;5.35;4.88;;;;;;;;;;4933935;29;20418;-76
2021/12/03 05:49:49;;;;;;;3.83;3.63;;;;;;;;;;4933698;29;20040;-77
2021/12/03 05:52:15;;;;;;;4.13;3.83;;;;;;;;;;4933475;29;20116;-76
2021/12/03 05:54:41;;;;;;;3.92;3.60;;;;;;;;;;4916827;29;20036;-76
2021/12/03 05:57:06;;;;;;;5.75;4.20;;;;;;;;;;4932637;29;20032;-76
2021/12/03 05:59:32;;;;;;;4.10;3.72;;;;;;;;;;4932854;29;20501;-76
2021/12/03 06:01:57;;;;;;;3.88;3.58;;;;;;;;;;4933516;29;20035;-75
2021/12/03 06:04:23;;;;;;;4.20;3.80;;;;;;;;;;4933904;29;20059;-77
2021/12/03 06:06:48;;;;;;;6.00;5.50;;;;;;;;;;4915398;29;20458;-76
2021/12/03 06:09:14;;;;;;;4.22;3.83;;;;;;;;;;4915190;29;20036;-76
2021/12/03 06:11:40;;;;;;;4.43;4.13;;;;;;;;;;4914564;29;20047;-77
2021/12/03 06:14:05;;;;;;;3.97;3.60;;;;;;;;;;4932956;29;20040;-78
2021/12/03 06:16:30;;;;;;;4.35;3.95;;;;;;;;;;4933388;29;20569;-76
2021/12/03 06:18:56;;;;;;;3.90;3.60;;;;;;;;;;4926191;29;20039;-76
2021/12/03 06:21:21;;;;;;;6.45;3.85;;;;;;;;;;4914039;29;20052;-76
2021/12/03 06:23:47;;;;;;;5.30;4.03;;;;;;;;;;4914347;29;20031;-78
2021/12/03 06:26:13;;;;;;;4.18;3.78;;;;;;;;;;4896808;29;20039;-75
2021/12/03 06:28:41;;;;;;;3.80;3.50;;;;;;;;;;4914099;29;20036;-75
2021/12/03 06:31:07;;;;;;;3.92;3.63;;;;;;;;;;4912842;29;20127;-77
2021/12/03 06:33:33;;;;;;;4.25;3.88;;;;;;;;;;4912299;29;20063;-76
2021/12/03 06:35:59;;;;;;;6.38;5.88;;;;;;;;;;4911871;29;20403;-78
2021/12/03 06:38:25;;;;;;;3.83;3.35;;;;;;;;;;4912182;29;20047;-78
2021/12/03 06:40:53;;;;;;;5.28;3.92;;;;;;;;;;4912696;29;20526;-77
2021/12/03 06:43:19;;;;;;;4.25;3.95;;;;;;;;;;4911693;29;20043;-75
2021/12/03 06:45:45;;;;;;;6.05;3.95;;;;;;;;;;4917411;29;20032;-78
2021/12/03 06:48:11;;;;;;;5.40;4.05;;;;;;;;;;4932362;29;20043;-76
2021/12/03 06:50:38;;;;;;;4.57;4.18;;;;;;;;;;4915282;29;20462;-77
2021/12/03 06:53:06;;;;;;;6.10;4.45;;;;;;;;;;4916324;29;20046;-77
2021/12/03 06:55:46;;;;;;;5.43;5.03;;;;;;;;;;4933170;29;20058;-77
2021/12/03 06:58:13;;;;;;;3.70;3.40;;;;;;;;;;4932312;29;20035;-78
2021/12/03 07:00:39;;;;;;;3.92;3.47;;;;;;;;;;4932927;29;20514;-77
2021/12/03 07:03:04;;;;;;;4.63;4.22;;;;;;;;;;4931813;29;20039;-76
2021/12/03 07:05:30;;;;;;;6.05;4.30;;;;;;;;;;4915320;29;20039;-77
2021/12/03 07:07:55;;;;;;;4.55;4.15;;;;;;;;;;4933071;29;20039;-77
2021/12/03 07:10:21;;;;;;;4.57;4.20;;;;;;;;;;4921340;29;20044;-76
2021/12/03 07:12:47;;;;;;;5.72;3.92;;;;;;;;;;4913228;29;20495;-77
2021/12/03 07:15:12;;;;;;;4.25;3.85;;;;;;;;;;4913579;29;20036;-77
2021/12/03 07:17:38;;;;;;;5.15;4.75;;;;;;;;;;4912821;29;20056;-76
2021/12/03 07:20:04;;;;;;;7.20;4.30;;;;;;;;;;4896379;29;20123;-77
2021/12/03 07:22:30;;;;;;;5.40;5.00;;;;;;;;;;4913401;29;20088;-75
2021/12/03 07:24:56;;;;;;;5.38;4.95;;;;;;;;;;4913692;29;20119;-71
2021/12/03 07:27:23;;;;;;;6.28;5.32;;;;;;;;;;4913069;29;20040;-72
2021/12/03 07:29:48;;;;;;;6.07;5.50;;;;;;;;;;4896111;29;20056;-73
2021/12/03 07:32:19;;;;;;;6.40;5.65;;;;;;;;;;4923832;29;20051;-73
2021/12/03 07:34:46;;;;;;;5.50;5.00;;;;;;;;;;4890838;29;20066;-72
2021/12/03 07:37:11;;;;;;;5.30;4.57;;;;;;;;;;4924318;29;20054;-71
2021/12/03 07:39:38;;;;;;;8.27;5.47;;;;;;;;;;4929330;29;20035;-71
2021/12/03 07:42:04;;;;;;;7.57;5.20;;;;;;;;;;4929058;29;20124;-71
2021/12/03 07:44:30;;;;;;;6.13;5.05;;;;;;;;;;4929023;29;20035;-73
2021/12/03 07:46:55;;;;;;;5.78;4.68;;;;;;;;;;4929201;29;20105;-73
2021/12/03 07:49:22;;;;;;;5.93;5.32;;;;;;;;;;4931458;29;20047;-73
2021/12/03 07:51:48;;;;;;;6.45;5.70;;;;;;;;;;4932058;29;20150;-72
2021/12/03 07:54:14;;;;;;;6.07;4.70;;;;;;;;;;4931960;29;20079;-72
2021/12/03 07:56:39;;;;;;;6.80;4.53;;;;;;;;;;4930737;29;20043;-72
2021/12/03 07:59:05;;;;;;;5.32;4.50;;;;;;;;;;4931648;29;20036;-73
2021/12/03 08:01:31;;;;;;;5.22;4.40;;;;;;;;;;4930088;29;20039;-72
2021/12/03 08:03:57;;;;;;;8.35;5.95;;;;;;;;;;4931178;29;20039;-72
2021/12/03 08:06:22;;;;;;;6.43;5.05;;;;;;;;;;4931252;29;20043;-72
2021/12/03 08:08:48;;;;;;;8.48;4.57;;;;;;;;;;4931394;29;20487;-72
2021/12/03 08:11:13;;;;;;;8.57;5.18;;;;;;;;;;4929078;29;20071;-72
2021/12/03 08:13:39;;;;;;;5.07;4.57;;;;;;;;;;4931275;29;20047;-73
2021/12/03 08:16:05;;;;;;;5.70;4.40;;;;;;;;;;4930838;29;20040;-72
2021/12/03 08:18:30;;;;;;;5.00;4.47;;;;;;;;;;4931126;29;20044;-71
2021/12/03 08:20:56;;;;;;;5.38;4.85;;;;;;;;;;4931239;29;20106;-73
2021/12/03 08:23:22;;;;;;;4.82;4.22;;;;;;;;;;4930797;29;20405;-72
2021/12/03 08:25:48;;;;;;;8.15;5.05;;;;;;;;;;4930743;29;20071;-73
2021/12/03 08:28:14;;;;;;;6.72;4.90;;;;;;;;;;4931508;29;20047;-73
2021/12/03 08:30:40;;;;;;;8.45;5.47;;;;;;;;;;4931027;29;20072;-74
2021/12/03 08:33:06;;;;;;;5.70;4.70;;;;;;;;;;4930046;29;20043;-73
2021/12/03 08:35:31;;;;;;;7.93;5.00;;;;;;;;;;4930098;29;20050;-73
2021/12/03 08:37:57;;;;;;;4.53;4.00;;;;;;;;;;4930185;29;20081;-73
2021/12/03 08:40:23;;;;;;;5.20;4.63;;;;;;;;;;4930297;29;20090;-71
2021/12/03 08:42:50;;;;;;;5.55;4.65;;;;;;;;;;4923207;29;20060;-72
2021/12/03 08:45:17;;;;;;;4.63;3.78;;;;;;;;;;4913731;29;20135;-73
2021/12/03 08:47:46;;;;;;;6.25;4.03;;;;;;;;;;4930868;29;20102;-77
2021/12/03 08:50:15;;;;;;;4.68;4.20;;;;;;;;;;4931194;29;20043;-76
2021/12/03 08:55:25;;;;;;;6.28;4.07;;;;;;;;;;4930891;29;20159;-76
2021/12/03 08:57:50;;;;;;;5.35;4.47;;;;;;;;;;4930678;29;21318;-76
2021/12/03 09:00:19;;;;;;;7.75;4.40;;;;;;;;;;4929929;29;20042;-77
2021/12/03 09:02:45;;;;;;;9.93;4.13;;;;;;;;;;4925259;29;20051;-77
2021/12/03 09:05:11;;;;;;;5.10;4.65;;;;;;;;;;4929630;29;20872;-77
2021/12/03 09:07:37;;;;;;;5.32;4.60;;;;;;;;;;4930554;29;20036;-76
2021/12/03 09:10:05;;;;;;;6.55;4.90;;;;;;;;;;4930026;29;20058;-76
2021/12/03 09:12:31;;;;;;;6.80;4.68;;;;;;;;;;4912733;29;20031;-77
2021/12/03 09:15:00;;;;;;;5.97;4.90;;;;;;;;;;4912791;29;20043;-80
2021/12/03 09:20:40;;;;;;;7.15;4.88;;;;;;;;;;4931173;29;20050;-78
2021/12/03 09:23:55;;;;;;;6.57;4.47;;;;;;;;;;4930764;29;20042;-77
2021/12/03 09:26:06;;;;;;;4.47;3.83;;;;;;;;;;4927804;29;20158;-76
2021/12/03 09:28:34;;;;;;;5.25;3.97;;;;;;;;;;4930102;29;20504;-77
2021/12/03 09:31:01;;;;;;;5.60;4.18;;;;;;;;;;4929967;29;20063;-75
2021/12/03 09:33:29;;;;;;;7.45;4.53;;;;;;;;;;4929511;29;20090;-77
2021/12/03 09:35:58;;;;;;;6.32;4.80;;;;;;;;;;4930308;29;20119;-76
2021/12/03 09:38:30;;;;;;;6.10;4.25;;;;;;;;;;4930849;29;20114;-79
2021/12/03 09:40:58;;;;;;;13.20;5.55;;;;;;;;;;4912583;29;20676;-75
2021/12/03 09:43:23;;;;;;;6.80;4.53;;;;;;;;;;4929475;29;20431;-75
2021/12/03 09:46:00;;;;;;;5.68;4.30;;;;;;;;;;4929820;29;20044;-75
2021/12/03 09:48:44;;;;;;;5.85;4.68;;;;;;;;;;4929440;29;20043;-77
2021/12/03 09:51:10;;;;;;;5.22;4.38;;;;;;;;;;4928943;29;20040;-75
2021/12/03 09:56:04;;;;;;;5.43;4.22;;;;;;;;;;4913197;29;20040;-76
2021/12/03 09:58:53;;;;;;;5.85;4.53;;;;;;;;;;4912418;29;20050;-77
2021/12/03 10:01:33;;;;;;;5.72;4.68;;;;;;;;;;4928544;29;20081;-77
2021/12/03 10:14:52;;;;;;;4.82;4.30;;;;;;;;;;4929563;29;20131;-76
2021/12/03 10:20:14;;;;;;;4.28;3.88;;;;;;;;;;4930290;29;20200;-77
2021/12/03 10:28:18;;;;;;;5.18;4.38;;;;;;;;;;4905340;29;20135;-75
2021/12/03 10:42:21;;;;;;;3.85;3.45;;;;;;;;;;4928007;29;20043;-74
2021/12/03 10:44:46;;;;;;;4.32;3.92;;;;;;;;;;4922337;29;20053;-77
2021/12/03 10:53:07;;;;;;;5.57;4.45;;;;;;;;;;4841822;29;20042;-76
2021/12/03 10:58:29;;;;;;;7.80;4.18;;;;;;;;;;4897889;29;20046;-76
2021/12/03 11:01:32;;;;;;;5.00;4.10;;;;;;;;;;4929164;29;20042;-75
2021/12/03 11:34:46;;;;;;;3.92;3.63;;;;;;;;;;4932815;29;20096;-78
2021/12/03 11:39:29;;;;;;;4.15;3.45;;;;;;;;;;4933740;29;20099;-79
2021/12/03 12:04:43;;;;;;;3.90;3.50;;;;;;;;;;4933851;29;20066;-81
2021/12/03 14:42:23;;;;;;;7.30;5.25;;;;;;;;;;4931154;29;20115;-79
2021/12/03 14:44:58;;;;;;;7.97;4.82;;;;;;;;;;4899478;29;20114;-79
2021/12/03 14:52:59;;;;;;;6.97;4.53;;;;;;;;;;4930542;29;20046;-78
2021/12/03 14:55:27;;;;;;;5.95;5.20;;;;;;;;;;4930239;29;20043;-78
2021/12/03 14:58:04;;;;;;;7.13;5.65;;;;;;;;;;4930826;29;20122;-78
2021/12/03 15:08:39;;;;;;;9.07;5.57;;;;;;;;;;4929948;29;20047;-79
2021/12/03 15:17:38;;;;;;;8.50;6.43;;;;;;;;;;4931212;29;20407;-79
2021/12/03 15:33:21;;;;;;;6.05;4.55;;;;;;;;;;4928713;29;20095;-78
2021/12/03 16:04:49;;;;;;;7.75;4.95;;;;;;;;;;4933480;29;20050;-78
2021/12/03 16:23:12;;;;;;;10.10;7.22;;;;;;;;;;4932338;29;20670;-81
2021/12/03 16:26:02;;;;;;;6.80;5.07;;;;;;;;;;4914261;29;20202;-79
2021/12/03 16:45:36;;;;;;;7.80;5.30;;;;;;;;;;4932189;29;20045;-78
2021/12/03 16:53:27;;;;;;;6.22;4.10;;;;;;;;;;4932117;29;20066;-76
2021/12/03 16:58:38;;;;;;;5.18;4.50;;;;;;;;;;4930929;29;20042;-76
2021/12/03 17:03:57;;;;;;;6.47;5.82;;;;;;;;;;4930224;29;20402;-79
2021/12/03 17:49:23;;;;;;;4.32;3.80;;;;;;;;;;4930196;29;20039;-76
2021/12/03 17:51:55;;;;;;;3.88;3.50;;;;;;;;;;4930545;29;20039;-76
2021/12/03 17:56:50;;;;;;;4.35;4.00;;;;;;;;;;4930256;29;20138;-76
2021/12/03 17:59:24;;;;;;;5.78;4.63;;;;;;;;;;4929939;29;20304;-76
2021/12/03 18:02:14;;;;;;;4.88;4.38;;;;;;;;;;4929169;29;20039;-76
2021/12/03 18:04:45;;;;;;;4.00;3.70;;;;;;;;;;4929428;29;20651;-76
2021/12/03 18:07:22;;;;;;;4.63;4.20;;;;;;;;;;4930068;29;20097;-76
2021/12/03 18:55:46;;;;;;;4.80;4.32;;;;;;;;;;4928889;29;20094;-75
2021/12/03 18:58:11;;;;;;;6.63;4.50;;;;;;;;;;4927766;29;20039;-78
2021/12/03 19:00:43;;;;;;;6.93;6.18;;;;;;;;;;4928703;29;20414;-78
2021/12/03 19:08:15;;;;;;;6.80;3.83;;;;;;;;;;4928861;29;20031;-77
2021/12/03 19:10:45;;;;;;;4.40;4.00;;;;;;;;;;4928663;29;20047;-76
2021/12/03 19:13:16;;;;;;;3.97;3.42;;;;;;;;;;4929007;29;20147;-76
2021/12/03 19:15:43;;;;;;;6.65;6.05;;;;;;;;;;4928333;29;20403;-77
2021/12/03 19:18:10;;;;;;;5.97;4.32;;;;;;;;;;4928613;29;20038;-76
2021/12/03 19:20:42;;;;;;;5.55;4.18;;;;;;;;;;4928820;29;20043;-75
2021/12/03 19:23:09;;;;;;;4.18;3.75;;;;;;;;;;4928976;29;20497;-75
2021/12/03 19:25:35;;;;;;;6.68;4.50;;;;;;;;;;4910873;29;20027;-76
2021/12/03 19:28:01;;;;;;;4.63;3.72;;;;;;;;;;4928936;29;20067;-76
2021/12/03 19:30:26;;;;;;;4.72;4.20;;;;;;;;;;4928021;29;20158;-75
2021/12/03 19:32:52;;;;;;;5.22;4.70;;;;;;;;;;4928926;29;20063;-76
2021/12/03 19:35:17;;;;;;;4.00;3.60;;;;;;;;;;4932007;29;20090;-73
2021/12/03 19:37:45;;;;;;;3.95;3.63;;;;;;;;;;4932213;29;20043;-74
2021/12/03 19:40:12;;;;;;;4.25;3.65;;;;;;;;;;4932240;29;20046;-75
2021/12/03 19:42:47;;;;;;;4.63;3.83;;;;;;;;;;4932648;29;20059;-74
2021/12/03 19:45:17;;;;;;;4.47;4.07;;;;;;;;;;4932889;29;20036;-75
2021/12/03 19:47:58;;;;;;;5.28;3.67;;;;;;;;;;4931696;29;20036;-75
2021/12/03 19:50:34;;;;;;;4.85;4.28;;;;;;;;;;4932590;29;20047;-74
2021/12/03 19:53:16;;;;;;;3.75;3.17;;;;;;;;;;4932181;29;20078;-77
2021/12/03 19:55:44;;;;;;;6.00;4.22;;;;;;;;;;4930473;29;20040;-75
2021/12/03 19:58:12;;;;;;;4.95;4.35;;;;;;;;;;4931682;29;20099;-76
2021/12/03 20:00:39;;;;;;;5.85;5.32;;;;;;;;;;4931483;29;20117;-77
2021/12/03 20:03:05;;;;;;;7.30;4.65;;;;;;;;;;4929752;29;20046;-76
2021/12/03 20:05:31;;;;;;;4.57;4.18;;;;;;;;;;4932155;29;20040;-79
2021/12/03 20:07:59;;;;;;;4.68;4.22;;;;;;;;;;4932802;29;20043;-77
2021/12/03 20:10:27;;;;;;;5.88;4.63;;;;;;;;;;4931728;29;20106;-79
2021/12/03 20:12:53;;;;;;;4.18;3.88;;;;;;;;;;4932733;29;20074;-77
2021/12/03 20:18:28;;;;;;;4.18;3.85;;;;;;;;;;4899081;29;20047;-76
2021/12/03 20:20:54;;;;;;;4.82;3.92;;;;;;;;;;4932294;29;20043;-76
2021/12/03 20:23:34;;;;;;;4.13;3.80;;;;;;;;;;4931250;29;20039;-77
2021/12/03 20:26:48;;;;;;;6.28;5.57;;;;;;;;;;4931981;29;20288;-77
2021/12/03 20:28:55;;;;;;;5.13;3.95;;;;;;;;;;4921548;29;20093;-75
2021/12/03 20:31:24;;;;;;;5.50;4.25;;;;;;;;;;4914481;29;20056;-77
2021/12/03 20:34:46;;;;;;;6.32;4.90;;;;;;;;;;4930742;29;20035;-76
2021/12/03 20:39:18;;;;;;;3.55;3.25;;;;;;;;;;4932200;29;20503;-77
2021/12/03 20:52:33;;;;;;;5.22;4.30;;;;;;;;;;4931907;29;20084;-75
2021/12/03 21:08:52;;;;;;;5.63;3.28;;;;;;;;;;4917740;29;20179;-76
2021/12/03 21:11:25;;;;;;;3.35;3.05;;;;;;;;;;4912833;29;20138;-76
2021/12/03 21:13:52;;;;;;;3.72;3.38;;;;;;;;;;4912786;29;20063;-75
2021/12/03 21:23:56;;;;;;;4.32;3.38;;;;;;;;;;4930261;29;20040;-75
2021/12/03 21:26:24;;;;;;;3.78;3.40;;;;;;;;;;4930305;29;20044;-76
2021/12/03 21:31:25;;;;;;;4.82;4.43;;;;;;;;;;4931250;29;20438;-75
2021/12/03 21:42:24;;;;;;;3.28;2.97;;;;;;;;;;4931001;29;20055;-73
2021/12/03 21:44:49;;;;;;;4.05;3.72;;;;;;;;;;4931368;29;20126;-75
2021/12/03 21:47:21;;;;;;;5.03;4.70;;;;;;;;;;4930996;29;20479;-77
2021/12/03 21:49:46;;;;;;;3.78;3.47;;;;;;;;;;4930580;29;20471;-74
2021/12/03 21:52:12;;;;;;;3.70;3.40;;;;;;;;;;4930867;29;20111;-77
2021/12/03 21:54:38;;;;;;;3.58;3.28;;;;;;;;;;4930899;29;20039;-75
2021/12/03 21:57:05;;;;;;;5.40;4.13;;;;;;;;;;4930271;29;20175;-76
2021/12/03 21:59:32;;;;;;;4.05;3.75;;;;;;;;;;4914069;29;20043;-75
2021/12/03 22:01:58;;;;;;;4.00;3.70;;;;;;;;;;4930781;29;20122;-76
2021/12/03 22:04:28;;;;;;;4.18;3.75;;;;;;;;;;4913550;29;20023;-76
2021/12/03 22:06:54;;;;;;;4.70;3.88;;;;;;;;;;4931008;29;20099;-77
2021/12/03 22:09:19;;;;;;;3.92;3.63;;;;;;;;;;4930758;29;20048;-76
2021/12/03 22:11:45;;;;;;;4.10;3.72;;;;;;;;;;4932126;29;20041;-76
2021/12/03 22:14:12;;;;;;;4.40;4.00;;;;;;;;;;4934448;29;20122;-76
2021/12/03 22:16:37;;;;;;;3.70;3.33;;;;;;;;;;4934932;29;20127;-75
2021/12/03 22:19:03;;;;;;;5.00;4.55;;;;;;;;;;4934453;29;20126;-76
2021/12/03 22:21:34;;;;;;;4.15;3.85;;;;;;;;;;4934269;29;20554;-74
2021/12/03 22:23:59;;;;;;;4.60;4.20;;;;;;;;;;4934061;29;20059;-76
2021/12/03 22:26:30;;;;;;;5.38;4.43;;;;;;;;;;4934362;29;20090;-77
2021/12/03 22:29:04;;;;;;;4.32;3.92;;;;;;;;;;4934215;29;20035;-77
2021/12/03 22:31:30;;;;;;;4.40;3.95;;;;;;;;;;4934000;29;20055;-76
2021/12/03 22:33:56;;;;;;;4.30;4.00;;;;;;;;;;4933970;29;20046;-76
2021/12/03 22:36:22;;;;;;;4.15;3.75;;;;;;;;;;4933906;29;20047;-76
2021/12/03 22:38:48;;;;;;;5.15;4.03;;;;;;;;;;4933907;29;20491;-76
2021/12/03 22:41:14;;;;;;;4.80;3.80;;;;;;;;;;4933830;29;20035;-75
2021/12/03 22:43:42;;;;;;;4.00;3.63;;;;;;;;;;4916559;29;20122;-75
2021/12/03 22:53:58;;;;;;;4.15;3.85;;;;;;;;;;4934303;29;20055;-75
2021/12/03 22:56:23;;;;;;;4.00;3.65;;;;;;;;;;4933940;29;20031;-76
2021/12/03 22:59:10;;;;;;;3.58;3.28;;;;;;;;;;4916752;29;20039;-76
2021/12/03 23:01:36;;;;;;;3.38;3.05;;;;;;;;;;4916275;29;20387;-74
2021/12/03 23:04:02;;;;;;;3.63;3.33;;;;;;;;;;4933542;29;20067;-76
2021/12/03 23:06:31;;;;;;;3.85;3.53;;;;;;;;;;4933567;29;20491;-75
2021/12/03 23:08:58;;;;;;;3.63;3.33;;;;;;;;;;4916514;29;20115;-76
2021/12/03 23:11:23;;;;;;;5.40;4.50;;;;;;;;;;4933990;29;20043;-75
2021/12/03 23:13:49;;;;;;;6.18;5.68;;;;;;;;;;4933173;29;20411;-75
2021/12/03 23:16:17;;;;;;;4.20;3.80;;;;;;;;;;4933365;29;20036;-75
2021/12/03 23:18:42;;;;;;;4.15;3.72;;;;;;;;;;4916429;29;20040;-77
2021/12/03 23:21:09;;;;;;;3.95;3.55;;;;;;;;;;4933311;29;20040;-74